sensor_id;sensor_type;location;lat;lon;timestamp;temperature;humidity
66102;HTU21D;52883;51.094;5.880;2024-03-08T00:00:51;3.26;118.99
66102;HTU21D;52883;51.094;5.880;2024-03-08T00:03:17;3.25;118.99
66102;HTU21D;52883;51.094;5.880;2024-03-08T00:05:45;3.18;118.99
66102;HTU21D;52883;51.094;5.880;2024-03-08T00:08:13;3.16;118.99
66102;HTU21D;52883;51.094;5.880;2024-03-08T00:10:42;3.12;118.99
66102;HTU21D;52883;51.094;5.880;2024-03-08T00:13:15;3.11;118.99
66102;HTU21D;52883;51.094;5.880;2024-03-08T00:15:47;3.14;118.99
66102;HTU21D;52883;51.094;5.880;2024-03-08T00:18:21;3.12;118.99
66102;HTU21D;52883;51.094;5.880;2024-03-08T00:20:47;3.10;118.99
66102;HTU21D;52883;51.094;5.880;2024-03-08T00:23:13;3.08;118.99
66102;HTU21D;52883;51.094;5.880;2024-03-08T00:25:41;3.06;118.99
66102;HTU21D;52883;51.094;5.880;2024-03-08T00:28:09;2.98;118.99
66102;HTU21D;52883;51.094;5.880;2024-03-08T00:30:44;2.93;118.99
66102;HTU21D;52883;51.094;5.880;2024-03-08T00:33:26;2.93;118.99
66102;HTU21D;52883;51.094;5.880;2024-03-08T00:35:56;2.89;118.99
66102;HTU21D;52883;51.094;5.880;2024-03-08T00:38:27;2.88;118.99
66102;HTU21D;52883;51.094;5.880;2024-03-08T00:41:07;2.86;118.99
66102;HTU21D;52883;51.094;5.880;2024-03-08T00:43:48;2.87;118.99
66102;HTU21D;52883;51.094;5.880;2024-03-08T00:46:25;2.82;118.99
66102;HTU21D;52883;51.094;5.880;2024-03-08T00:48:51;2.83;118.99
66102;HTU21D;52883;51.094;5.880;2024-03-08T00:51:22;2.81;118.99
66102;HTU21D;52883;51.094;5.880;2024-03-08T00:53:52;2.82;118.99
66102;HTU21D;52883;51.094;5.880;2024-03-08T00:56:18;2.82;118.99
66102;HTU21D;52883;51.094;5.880;2024-03-08T00:58:44;2.71;118.99
66102;HTU21D;52883;51.094;5.880;2024-03-08T01:01:13;2.67;118.99
66102;HTU21D;52883;51.094;5.880;2024-03-08T01:03:47;2.67;118.99
66102;HTU21D;52883;51.094;5.880;2024-03-08T01:06:14;2.62;118.99
66102;HTU21D;52883;51.094;5.880;2024-03-08T01:08:42;2.59;118.99
66102;HTU21D;52883;51.094;5.880;2024-03-08T01:11:08;2.58;118.99
66102;HTU21D;52883;51.094;5.880;2024-03-08T01:13:37;2.57;118.99
66102;HTU21D;52883;51.094;5.880;2024-03-08T01:16:03;2.52;118.99
66102;HTU21D;52883;51.094;5.880;2024-03-08T01:18:29;2.52;118.99
66102;HTU21D;52883;51.094;5.880;2024-03-08T01:20:59;2.47;118.99
66102;HTU21D;52883;51.094;5.880;2024-03-08T01:23:25;2.50;118.99
66102;HTU21D;52883;51.094;5.880;2024-03-08T01:25:51;2.46;118.99
66102;HTU21D;52883;51.094;5.880;2024-03-08T01:28:26;2.42;118.99
66102;HTU21D;52883;51.094;5.880;2024-03-08T01:30:52;2.41;118.99
66102;HTU21D;52883;51.094;5.880;2024-03-08T01:33:24;2.43;118.99
66102;HTU21D;52883;51.094;5.880;2024-03-08T01:35:54;2.43;118.99
66102;HTU21D;52883;51.094;5.880;2024-03-08T01:38:25;2.40;118.99
66102;HTU21D;52883;51.094;5.880;2024-03-08T01:40:51;2.37;118.99
66102;HTU21D;52883;51.094;5.880;2024-03-08T01:45:42;2.27;118.99
66102;HTU21D;52883;51.094;5.880;2024-03-08T01:48:14;2.22;118.99
66102;HTU21D;52883;51.094;5.880;2024-03-08T01:50:51;2.22;118.99
66102;HTU21D;52883;51.094;5.880;2024-03-08T01:53:20;2.20;118.99
66102;HTU21D;52883;51.094;5.880;2024-03-08T01:55:50;2.22;118.99
66102;HTU21D;52883;51.094;5.880;2024-03-08T01:58:18;2.22;118.99
66102;HTU21D;52883;51.094;5.880;2024-03-08T02:00:48;2.19;118.99
66102;HTU21D;52883;51.094;5.880;2024-03-08T02:03:24;2.19;118.99
66102;HTU21D;52883;51.094;5.880;2024-03-08T02:05:50;2.23;118.99
66102;HTU21D;52883;51.094;5.880;2024-03-08T02:08:18;2.16;118.99
66102;HTU21D;52883;51.094;5.880;2024-03-08T02:10:44;2.16;118.99
66102;HTU21D;52883;51.094;5.880;2024-03-08T02:13:11;2.16;118.99
66102;HTU21D;52883;51.094;5.880;2024-03-08T02:15:53;2.21;118.99
66102;HTU21D;52883;51.094;5.880;2024-03-08T02:18:20;2.14;118.99
66102;HTU21D;52883;51.094;5.880;2024-03-08T02:20:47;2.16;118.99
66102;HTU21D;52883;51.094;5.880;2024-03-08T02:23:16;2.15;118.99
66102;HTU21D;52883;51.094;5.880;2024-03-08T02:25:41;2.14;118.99
66102;HTU21D;52883;51.094;5.880;2024-03-08T02:28:12;2.09;118.99
66102;HTU21D;52883;51.094;5.880;2024-03-08T02:30:38;2.11;118.99
66102;HTU21D;52883;51.094;5.880;2024-03-08T02:33:08;2.09;118.99
66102;HTU21D;52883;51.094;5.880;2024-03-08T02:35:36;2.08;118.99
66102;HTU21D;52883;51.094;5.880;2024-03-08T02:38:03;2.01;118.99
66102;HTU21D;52883;51.094;5.880;2024-03-08T02:40:32;2.03;118.99
66102;HTU21D;52883;51.094;5.880;2024-03-08T02:42:57;2.03;118.99
66102;HTU21D;52883;51.094;5.880;2024-03-08T02:45:23;2.06;118.99
66102;HTU21D;52883;51.094;5.880;2024-03-08T02:47:52;2.06;118.99
66102;HTU21D;52883;51.094;5.880;2024-03-08T02:50:25;2.06;118.99
66102;HTU21D;52883;51.094;5.880;2024-03-08T02:52:51;2.01;118.99
66102;HTU21D;52883;51.094;5.880;2024-03-08T02:55:16;1.98;118.99
66102;HTU21D;52883;51.094;5.880;2024-03-08T02:57:42;2.02;118.99
66102;HTU21D;52883;51.094;5.880;2024-03-08T03:00:16;2.10;118.99
66102;HTU21D;52883;51.094;5.880;2024-03-08T03:02:41;2.09;118.99
66102;HTU21D;52883;51.094;5.880;2024-03-08T03:05:08;2.02;118.99
66102;HTU21D;52883;51.094;5.880;2024-03-08T03:07:35;1.96;118.99
66102;HTU21D;52883;51.094;5.880;2024-03-08T03:10:05;1.93;118.99
66102;HTU21D;52883;51.094;5.880;2024-03-08T03:12:35;2.00;118.99
66102;HTU21D;52883;51.094;5.880;2024-03-08T03:15:04;2.01;118.99
66102;HTU21D;52883;51.094;5.880;2024-03-08T03:17:30;2.02;118.99
66102;HTU21D;52883;51.094;5.880;2024-03-08T03:19:55;2.02;118.99
66102;HTU21D;52883;51.094;5.880;2024-03-08T03:22:21;2.05;118.99
66102;HTU21D;52883;51.094;5.880;2024-03-08T03:24:47;2.01;118.99
66102;HTU21D;52883;51.094;5.880;2024-03-08T03:27:18;1.96;118.99
66102;HTU21D;52883;51.094;5.880;2024-03-08T03:29:46;1.92;118.99
66102;HTU21D;52883;51.094;5.880;2024-03-08T03:32:18;1.86;118.99
66102;HTU21D;52883;51.094;5.880;2024-03-08T03:34:47;1.82;118.99
66102;HTU21D;52883;51.094;5.880;2024-03-08T03:37:15;1.81;118.99
66102;HTU21D;52883;51.094;5.880;2024-03-08T03:39:43;1.81;118.99
66102;HTU21D;52883;51.094;5.880;2024-03-08T03:42:19;1.76;118.99
66102;HTU21D;52883;51.094;5.880;2024-03-08T03:44:48;1.78;118.99
66102;HTU21D;52883;51.094;5.880;2024-03-08T03:47:15;1.76;118.99
66102;HTU21D;52883;51.094;5.880;2024-03-08T03:49:41;1.76;118.99
66102;HTU21D;52883;51.094;5.880;2024-03-08T03:52:07;1.76;118.99
66102;HTU21D;52883;51.094;5.880;2024-03-08T03:54:33;1.76;118.99
66102;HTU21D;52883;51.094;5.880;2024-03-08T03:57:01;1.77;118.99
66102;HTU21D;52883;51.094;5.880;2024-03-08T03:59:28;1.81;118.99
66102;HTU21D;52883;51.094;5.880;2024-03-08T04:01:54;1.85;118.99
66102;HTU21D;52883;51.094;5.880;2024-03-08T04:04:23;1.83;118.99
66102;HTU21D;52883;51.094;5.880;2024-03-08T04:06:50;1.83;118.99
66102;HTU21D;52883;51.094;5.880;2024-03-08T04:09:16;1.84;118.99
66102;HTU21D;52883;51.094;5.880;2024-03-08T04:11:47;1.85;118.99
66102;HTU21D;52883;51.094;5.880;2024-03-08T04:14:15;1.83;118.99
66102;HTU21D;52883;51.094;5.880;2024-03-08T04:16:41;1.79;118.99
66102;HTU21D;52883;51.094;5.880;2024-03-08T04:19:07;1.73;118.99
66102;HTU21D;52883;51.094;5.880;2024-03-08T04:21:33;1.71;118.99
66102;HTU21D;52883;51.094;5.880;2024-03-08T04:24:02;1.67;118.99
66102;HTU21D;52883;51.094;5.880;2024-03-08T04:26:31;1.67;118.99
66102;HTU21D;52883;51.094;5.880;2024-03-08T04:28:59;1.64;118.99
66102;HTU21D;52883;51.094;5.880;2024-03-08T04:31:25;1.63;118.99
66102;HTU21D;52883;51.094;5.880;2024-03-08T04:33:55;1.62;118.99
66102;HTU21D;52883;51.094;5.880;2024-03-08T04:36:20;1.62;118.99
66102;HTU21D;52883;51.094;5.880;2024-03-08T04:38:46;1.57;118.99
66102;HTU21D;52883;51.094;5.880;2024-03-08T04:41:18;1.54;118.99
66102;HTU21D;52883;51.094;5.880;2024-03-08T04:43:44;1.47;118.99
66102;HTU21D;52883;51.094;5.880;2024-03-08T04:46:10;1.45;118.99
66102;HTU21D;52883;51.094;5.880;2024-03-08T04:48:35;1.42;118.99
66102;HTU21D;52883;51.094;5.880;2024-03-08T04:51:05;1.36;118.99
66102;HTU21D;52883;51.094;5.880;2024-03-08T04:53:31;1.35;118.99
66102;HTU21D;52883;51.094;5.880;2024-03-08T04:56:01;1.34;118.99
66102;HTU21D;52883;51.094;5.880;2024-03-08T04:58:32;1.31;118.99
66102;HTU21D;52883;51.094;5.880;2024-03-08T05:01:05;1.33;118.99
66102;HTU21D;52883;51.094;5.880;2024-03-08T05:03:30;1.28;118.99
66102;HTU21D;52883;51.094;5.880;2024-03-08T05:05:56;1.28;118.99
66102;HTU21D;52883;51.094;5.880;2024-03-08T05:08:29;1.31;118.99
66102;HTU21D;52883;51.094;5.880;2024-03-08T05:10:57;1.31;118.99
66102;HTU21D;52883;51.094;5.880;2024-03-08T05:13:25;1.33;118.99
66102;HTU21D;52883;51.094;5.880;2024-03-08T05:15:50;1.33;118.99
66102;HTU21D;52883;51.094;5.880;2024-03-08T05:18:16;1.33;118.99
66102;HTU21D;52883;51.094;5.880;2024-03-08T05:21:17;1.34;118.99
66102;HTU21D;52883;51.094;5.880;2024-03-08T05:23:48;1.31;118.99
66102;HTU21D;52883;51.094;5.880;2024-03-08T05:26:15;1.26;118.99
66102;HTU21D;52883;51.094;5.880;2024-03-08T05:28:41;1.24;118.99
66102;HTU21D;52883;51.094;5.880;2024-03-08T05:31:20;1.25;118.99
66102;HTU21D;52883;51.094;5.880;2024-03-08T05:33:49;1.26;118.99
66102;HTU21D;52883;51.094;5.880;2024-03-08T05:36:16;1.21;118.99
66102;HTU21D;52883;51.094;5.880;2024-03-08T05:38:45;1.17;118.99
66102;HTU21D;52883;51.094;5.880;2024-03-08T05:41:13;1.13;118.99
66102;HTU21D;52883;51.094;5.880;2024-03-08T05:43:41;1.13;118.99
66102;HTU21D;52883;51.094;5.880;2024-03-08T05:46:14;1.13;118.99
66102;HTU21D;52883;51.094;5.880;2024-03-08T05:48:40;1.12;118.99
66102;HTU21D;52883;51.094;5.880;2024-03-08T05:51:09;1.10;118.99
66102;HTU21D;52883;51.094;5.880;2024-03-08T05:53:38;1.07;118.99
66102;HTU21D;52883;51.094;5.880;2024-03-08T05:56:04;1.02;118.99
66102;HTU21D;52883;51.094;5.880;2024-03-08T05:58:35;1.01;118.99
66102;HTU21D;52883;51.094;5.880;2024-03-08T06:01:04;1.01;118.99
66102;HTU21D;52883;51.094;5.880;2024-03-08T06:03:54;1.04;118.99
66102;HTU21D;52883;51.094;5.880;2024-03-08T06:06:24;1.03;118.99
66102;HTU21D;52883;51.094;5.880;2024-03-08T06:08:59;1.08;118.99
66102;HTU21D;52883;51.094;5.880;2024-03-08T06:11:25;1.17;118.99
66102;HTU21D;52883;51.094;5.880;2024-03-08T06:13:59;1.22;118.99
66102;HTU21D;52883;51.094;5.880;2024-03-08T06:16:27;1.27;118.99
66102;HTU21D;52883;51.094;5.880;2024-03-08T06:18:57;1.32;118.99
66102;HTU21D;52883;51.094;5.880;2024-03-08T06:21:26;1.37;118.99
66102;HTU21D;52883;51.094;5.880;2024-03-08T06:24:08;1.42;118.99
66102;HTU21D;52883;51.094;5.880;2024-03-08T06:26:36;1.50;118.99
66102;HTU21D;52883;51.094;5.880;2024-03-08T06:29:21;1.53;118.99
66102;HTU21D;52883;51.094;5.880;2024-03-08T06:31:56;1.54;118.99
66102;HTU21D;52883;51.094;5.880;2024-03-08T06:34:22;1.62;118.99
66102;HTU21D;52883;51.094;5.880;2024-03-08T06:36:48;1.77;118.99
66102;HTU21D;52883;51.094;5.880;2024-03-08T06:39:18;1.97;118.99
66102;HTU21D;52883;51.094;5.880;2024-03-08T06:41:50;2.20;118.99
66102;HTU21D;52883;51.094;5.880;2024-03-08T06:44:16;2.34;118.99
66102;HTU21D;52883;51.094;5.880;2024-03-08T06:46:42;2.44;118.99
66102;HTU21D;52883;51.094;5.880;2024-03-08T06:49:08;2.54;118.99
66102;HTU21D;52883;51.094;5.880;2024-03-08T06:51:36;2.72;118.99
66102;HTU21D;52883;51.094;5.880;2024-03-08T06:54:04;2.97;118.99
66102;HTU21D;52883;51.094;5.880;2024-03-08T06:56:36;3.18;118.99
66102;HTU21D;52883;51.094;5.880;2024-03-08T06:59:05;3.41;118.99
66102;HTU21D;52883;51.094;5.880;2024-03-08T07:01:34;3.60;118.99
66102;HTU21D;52883;51.094;5.880;2024-03-08T07:04:02;3.65;118.99
66102;HTU21D;52883;51.094;5.880;2024-03-08T07:06:36;3.65;118.99
66102;HTU21D;52883;51.094;5.880;2024-03-08T07:09:04;3.76;118.99
66102;HTU21D;52883;51.094;5.880;2024-03-08T07:11:34;4.02;118.99
66102;HTU21D;52883;51.094;5.880;2024-03-08T07:14:00;4.39;118.99
66102;HTU21D;52883;51.094;5.880;2024-03-08T07:16:28;4.62;118.99
66102;HTU21D;52883;51.094;5.880;2024-03-08T07:18:54;4.66;118.99
66102;HTU21D;52883;51.094;5.880;2024-03-08T07:21:20;4.73;118.99
66102;HTU21D;52883;51.094;5.880;2024-03-08T07:23:48;4.66;118.99
66102;HTU21D;52883;51.094;5.880;2024-03-08T07:26:26;4.47;118.99
66102;HTU21D;52883;51.094;5.880;2024-03-08T07:28:54;4.45;118.99
66102;HTU21D;52883;51.094;5.880;2024-03-08T07:31:20;4.50;118.99
66102;HTU21D;52883;51.094;5.880;2024-03-08T07:34:05;4.77;118.99
66102;HTU21D;52883;51.094;5.880;2024-03-08T07:36:35;4.90;118.99
66102;HTU21D;52883;51.094;5.880;2024-03-08T07:39:01;4.87;118.62
66102;HTU21D;52883;51.094;5.880;2024-03-08T07:41:27;4.95;115.18
66102;HTU21D;52883;51.094;5.880;2024-03-08T07:43:55;4.95;115.62
66102;HTU21D;52883;51.094;5.880;2024-03-08T07:46:20;5.13;115.70
66102;HTU21D;52883;51.094;5.880;2024-03-08T07:48:46;5.43;112.95
66102;HTU21D;52883;51.094;5.880;2024-03-08T07:51:16;5.75;102.56
66102;HTU21D;52883;51.094;5.880;2024-03-08T07:53:43;5.79;100.13
66102;HTU21D;52883;51.094;5.880;2024-03-08T07:56:09;5.93;92.08
66102;HTU21D;52883;51.094;5.880;2024-03-08T07:58:38;5.87;94.25
66102;HTU21D;52883;51.094;5.880;2024-03-08T08:01:18;5.79;98.52
66102;HTU21D;52883;51.094;5.880;2024-03-08T08:03:50;5.70;102.09
66102;HTU21D;52883;51.094;5.880;2024-03-08T08:06:16;5.74;101.98
66102;HTU21D;52883;51.094;5.880;2024-03-08T08:08:44;5.84;99.80
66102;HTU21D;52883;51.094;5.880;2024-03-08T08:11:10;5.83;99.82
66102;HTU21D;52883;51.094;5.880;2024-03-08T08:13:41;6.05;95.88
66102;HTU21D;52883;51.094;5.880;2024-03-08T08:16:09;6.15;92.33
66102;HTU21D;52883;51.094;5.880;2024-03-08T08:18:38;6.33;94.13
66102;HTU21D;52883;51.094;5.880;2024-03-08T08:21:05;6.52;84.82
66102;HTU21D;52883;51.094;5.880;2024-03-08T08:23:34;6.52;82.43
66102;HTU21D;52883;51.094;5.880;2024-03-08T08:26:00;6.40;83.62
66102;HTU21D;52883;51.094;5.880;2024-03-08T08:28:29;6.49;84.88
66102;HTU21D;52883;51.094;5.880;2024-03-08T08:30:56;6.67;84.10
66102;HTU21D;52883;51.094;5.880;2024-03-08T08:33:24;6.67;79.85
66102;HTU21D;52883;51.094;5.880;2024-03-08T08:35:56;6.57;79.74
66102;HTU21D;52883;51.094;5.880;2024-03-08T08:38:26;6.76;79.85
66102;HTU21D;52883;51.094;5.880;2024-03-08T08:40:54;6.75;80.97
66102;HTU21D;52883;51.094;5.880;2024-03-08T08:43:22;6.80;79.28
66102;HTU21D;52883;51.094;5.880;2024-03-08T08:45:53;6.94;79.32
66102;HTU21D;52883;51.094;5.880;2024-03-08T08:48:24;6.98;81.27
66102;HTU21D;52883;51.094;5.880;2024-03-08T08:50:50;7.04;77.47
66102;HTU21D;52883;51.094;5.880;2024-03-08T08:53:29;7.24;74.09
66102;HTU21D;52883;51.094;5.880;2024-03-08T08:56:00;7.19;75.09
66102;HTU21D;52883;51.094;5.880;2024-03-08T08:58:27;7.24;73.41
66102;HTU21D;52883;51.094;5.880;2024-03-08T09:00:53;7.53;74.11
66102;HTU21D;52883;51.094;5.880;2024-03-08T09:03:21;7.68;72.66
66102;HTU21D;52883;51.094;5.880;2024-03-08T09:05:50;7.78;72.83
66102;HTU21D;52883;51.094;5.880;2024-03-08T09:08:20;7.90;71.71
66102;HTU21D;52883;51.094;5.880;2024-03-08T09:10:46;7.86;66.81
66102;HTU21D;52883;51.094;5.880;2024-03-08T09:13:14;7.98;68.84
66102;HTU21D;52883;51.094;5.880;2024-03-08T09:15:42;7.97;69.16
66102;HTU21D;52883;51.094;5.880;2024-03-08T09:18:10;8.17;65.08
66102;HTU21D;52883;51.094;5.880;2024-03-08T09:20:37;8.23;64.94
66102;HTU21D;52883;51.094;5.880;2024-03-08T09:23:03;8.22;64.10
66102;HTU21D;52883;51.094;5.880;2024-03-08T09:25:29;8.26;65.37
66102;HTU21D;52883;51.094;5.880;2024-03-08T09:27:55;8.29;61.31
66102;HTU21D;52883;51.094;5.880;2024-03-08T09:30:21;8.33;61.90
66102;HTU21D;52883;51.094;5.880;2024-03-08T09:32:47;8.38;63.31
66102;HTU21D;52883;51.094;5.880;2024-03-08T09:35:30;8.66;61.47
66102;HTU21D;52883;51.094;5.880;2024-03-08T09:38:00;8.65;59.48
66102;HTU21D;52883;51.094;5.880;2024-03-08T09:40:26;8.81;59.29
66102;HTU21D;52883;51.094;5.880;2024-03-08T09:42:56;9.22;57.70
66102;HTU21D;52883;51.094;5.880;2024-03-08T09:45:32;9.34;58.88
66102;HTU21D;52883;51.094;5.880;2024-03-08T09:48:04;9.61;55.79
66102;HTU21D;52883;51.094;5.880;2024-03-08T09:53:42;9.76;55.14
66102;HTU21D;52883;51.094;5.880;2024-03-08T09:56:14;9.91;53.91
66102;HTU21D;52883;51.094;5.880;2024-03-08T09:58:39;9.99;50.12
66102;HTU21D;52883;51.094;5.880;2024-03-08T10:01:37;10.16;48.37
66102;HTU21D;52883;51.094;5.880;2024-03-08T10:04:07;9.93;48.30
66102;HTU21D;52883;51.094;5.880;2024-03-08T10:06:33;9.94;48.04
66102;HTU21D;52883;51.094;5.880;2024-03-08T10:09:02;9.93;48.80
66102;HTU21D;52883;51.094;5.880;2024-03-08T10:11:34;10.23;47.83
66102;HTU21D;52883;51.094;5.880;2024-03-08T10:18:02;10.72;46.67
66102;HTU21D;52883;51.094;5.880;2024-03-08T10:20:40;10.78;43.71
66102;HTU21D;52883;51.094;5.880;2024-03-08T10:23:06;10.93;41.83
66102;HTU21D;52883;51.094;5.880;2024-03-08T10:25:42;10.81;43.33
66102;HTU21D;52883;51.094;5.880;2024-03-08T10:28:14;11.07;40.96
66102;HTU21D;52883;51.094;5.880;2024-03-08T10:30:55;10.87;38.70
66102;HTU21D;52883;51.094;5.880;2024-03-08T10:33:21;10.85;39.99
66102;HTU21D;52883;51.094;5.880;2024-03-08T10:36:14;10.80;39.07
66102;HTU21D;52883;51.094;5.880;2024-03-08T10:38:42;11.07;40.71
66102;HTU21D;52883;51.094;5.880;2024-03-08T10:41:15;11.33;38.40
66102;HTU21D;52883;51.094;5.880;2024-03-08T10:44:09;11.43;37.68
66102;HTU21D;52883;51.094;5.880;2024-03-08T10:49:32;11.22;37.43
66102;HTU21D;52883;51.094;5.880;2024-03-08T10:52:05;11.14;37.49
66102;HTU21D;52883;51.094;5.880;2024-03-08T10:54:37;11.17;37.93
66102;HTU21D;52883;51.094;5.880;2024-03-08T10:57:17;11.39;35.37
66102;HTU21D;52883;51.094;5.880;2024-03-08T10:59:43;11.29;37.38
66102;HTU21D;52883;51.094;5.880;2024-03-08T11:02:12;11.46;36.97
66102;HTU21D;52883;51.094;5.880;2024-03-08T11:04:46;11.61;36.77
66102;HTU21D;52883;51.094;5.880;2024-03-08T11:07:12;11.81;34.91
66102;HTU21D;52883;51.094;5.880;2024-03-08T11:09:42;11.99;33.60
66102;HTU21D;52883;51.094;5.880;2024-03-08T11:12:40;11.74;34.12
66102;HTU21D;52883;51.094;5.880;2024-03-08T11:15:12;12.03;32.08
66102;HTU21D;52883;51.094;5.880;2024-03-08T11:17:48;12.03;32.92
66102;HTU21D;52883;51.094;5.880;2024-03-08T11:20:18;11.87;33.99
66102;HTU21D;52883;51.094;5.880;2024-03-08T11:22:52;11.93;31.23
66102;HTU21D;52883;51.094;5.880;2024-03-08T11:25:33;12.11;33.29
66102;HTU21D;52883;51.094;5.880;2024-03-08T11:33:34;12.46;29.63
66102;HTU21D;52883;51.094;5.880;2024-03-08T11:36:20;12.43;29.75
66102;HTU21D;52883;51.094;5.880;2024-03-08T11:38:57;12.41;31.16
66102;HTU21D;52883;51.094;5.880;2024-03-08T11:41:43;12.67;30.54
66102;HTU21D;52883;51.094;5.880;2024-03-08T11:44:14;12.71;27.75
66102;HTU21D;52883;51.094;5.880;2024-03-08T11:46:47;12.76;26.26
66102;HTU21D;52883;51.094;5.880;2024-03-08T11:49:34;12.80;26.87
66102;HTU21D;52883;51.094;5.880;2024-03-08T11:51:59;12.91;26.31
66102;HTU21D;52883;51.094;5.880;2024-03-08T11:54:31;12.80;25.63
66102;HTU21D;52883;51.094;5.880;2024-03-08T11:56:57;12.80;24.41
66102;HTU21D;52883;51.094;5.880;2024-03-08T11:59:32;12.99;23.62
66102;HTU21D;52883;51.094;5.880;2024-03-08T12:02:03;12.99;23.43
66102;HTU21D;52883;51.094;5.880;2024-03-08T12:04:29;13.05;24.33
66102;HTU21D;52883;51.094;5.880;2024-03-08T12:06:59;13.08;25.14
66102;HTU21D;52883;51.094;5.880;2024-03-08T12:09:26;13.27;23.59
66102;HTU21D;52883;51.094;5.880;2024-03-08T12:11:52;13.19;23.91
66102;HTU21D;52883;51.094;5.880;2024-03-08T12:14:21;13.14;21.01
66102;HTU21D;52883;51.094;5.880;2024-03-08T12:16:50;13.05;22.73
66102;HTU21D;52883;51.094;5.880;2024-03-08T12:19:19;13.12;22.10
66102;HTU21D;52883;51.094;5.880;2024-03-08T12:21:45;13.22;22.46
66102;HTU21D;52883;51.094;5.880;2024-03-08T12:24:23;13.23;21.94
66102;HTU21D;52883;51.094;5.880;2024-03-08T12:26:54;13.44;21.57
66102;HTU21D;52883;51.094;5.880;2024-03-08T12:29:27;13.48;22.22
66102;HTU21D;52883;51.094;5.880;2024-03-08T12:31:55;13.61;20.54
66102;HTU21D;52883;51.094;5.880;2024-03-08T12:34:24;13.59;20.71
66102;HTU21D;52883;51.094;5.880;2024-03-08T12:36:59;13.49;21.57
66102;HTU21D;52883;51.094;5.880;2024-03-08T12:39:54;13.73;20.27
66102;HTU21D;52883;51.094;5.880;2024-03-08T12:42:21;13.60;19.77
66102;HTU21D;52883;51.094;5.880;2024-03-08T12:44:48;13.81;19.95
66102;HTU21D;52883;51.094;5.880;2024-03-08T12:47:17;13.76;20.90
66102;HTU21D;52883;51.094;5.880;2024-03-08T12:49:46;13.83;20.00
66102;HTU21D;52883;51.094;5.880;2024-03-08T12:52:15;13.94;20.01
66102;HTU21D;52883;51.094;5.880;2024-03-08T12:54:43;13.99;18.96
66102;HTU21D;52883;51.094;5.880;2024-03-08T12:57:09;14.08;19.89
66102;HTU21D;52883;51.094;5.880;2024-03-08T12:59:44;14.09;18.99
66102;HTU21D;52883;51.094;5.880;2024-03-08T13:02:10;14.15;20.26
66102;HTU21D;52883;51.094;5.880;2024-03-08T13:04:36;14.24;18.31
66102;HTU21D;52883;51.094;5.880;2024-03-08T13:07:05;14.23;18.80
66102;HTU21D;52883;51.094;5.880;2024-03-08T13:09:31;14.38;19.95
66102;HTU21D;52883;51.094;5.880;2024-03-08T13:11:59;14.59;18.77
66102;HTU21D;52883;51.094;5.880;2024-03-08T13:14:26;14.48;16.91
66102;HTU21D;52883;51.094;5.880;2024-03-08T13:17:01;14.38;17.96
66102;HTU21D;52883;51.094;5.880;2024-03-08T13:19:32;14.39;18.25
66102;HTU21D;52883;51.094;5.880;2024-03-08T13:21:59;14.33;18.45
66102;HTU21D;52883;51.094;5.880;2024-03-08T13:24:32;14.40;16.58
66102;HTU21D;52883;51.094;5.880;2024-03-08T13:27:01;14.14;17.87
66102;HTU21D;52883;51.094;5.880;2024-03-08T13:29:30;13.97;17.59
66102;HTU21D;52883;51.094;5.880;2024-03-08T13:31:59;14.23;17.96
66102;HTU21D;52883;51.094;5.880;2024-03-08T13:34:29;14.22;17.12
66102;HTU21D;52883;51.094;5.880;2024-03-08T13:37:00;14.17;17.08
66102;HTU21D;52883;51.094;5.880;2024-03-08T13:39:26;14.04;17.31
66102;HTU21D;52883;51.094;5.880;2024-03-08T13:41:52;14.18;18.06
66102;HTU21D;52883;51.094;5.880;2024-03-08T13:44:23;14.09;18.27
66102;HTU21D;52883;51.094;5.880;2024-03-08T13:46:48;13.98;18.64
66102;HTU21D;52883;51.094;5.880;2024-03-08T13:49:16;14.15;18.48
66102;HTU21D;52883;51.094;5.880;2024-03-08T13:51:42;14.06;18.54
66102;HTU21D;52883;51.094;5.880;2024-03-08T13:54:07;14.00;18.19
66102;HTU21D;52883;51.094;5.880;2024-03-08T13:56:33;14.06;18.68
66102;HTU21D;52883;51.094;5.880;2024-03-08T13:59:02;14.30;18.16
66102;HTU21D;52883;51.094;5.880;2024-03-08T14:01:30;14.25;17.45
66102;HTU21D;52883;51.094;5.880;2024-03-08T14:03:55;14.12;17.32
66102;HTU21D;52883;51.094;5.880;2024-03-08T14:06:21;13.93;17.38
66102;HTU21D;52883;51.094;5.880;2024-03-08T14:08:52;13.83;18.22
66102;HTU21D;52883;51.094;5.880;2024-03-08T14:11:29;13.97;18.32
66102;HTU21D;52883;51.094;5.880;2024-03-08T14:13:59;14.00;18.79
66102;HTU21D;52883;51.094;5.880;2024-03-08T14:16:28;14.06;18.31
66102;HTU21D;52883;51.094;5.880;2024-03-08T14:18:53;14.01;18.31
66102;HTU21D;52883;51.094;5.880;2024-03-08T14:21:24;13.98;19.26
66102;HTU21D;52883;51.094;5.880;2024-03-08T14:23:50;14.24;19.48
66102;HTU21D;52883;51.094;5.880;2024-03-08T14:26:23;14.26;18.57
66102;HTU21D;52883;51.094;5.880;2024-03-08T14:28:49;14.26;18.67
66102;HTU21D;52883;51.094;5.880;2024-03-08T14:31:25;14.34;19.05
66102;HTU21D;52883;51.094;5.880;2024-03-08T14:33:52;14.25;18.50
66102;HTU21D;52883;51.094;5.880;2024-03-08T14:36:21;14.20;18.36
66102;HTU21D;52883;51.094;5.880;2024-03-08T14:38:47;14.17;18.17
66102;HTU21D;52883;51.094;5.880;2024-03-08T14:41:13;14.05;17.78
66102;HTU21D;52883;51.094;5.880;2024-03-08T14:43:48;13.98;17.71
66102;HTU21D;52883;51.094;5.880;2024-03-08T14:46:18;13.66;16.98
66102;HTU21D;52883;51.094;5.880;2024-03-08T14:48:55;13.38;17.73
66102;HTU21D;52883;51.094;5.880;2024-03-08T14:51:23;13.15;18.76
66102;HTU21D;52883;51.094;5.880;2024-03-08T14:53:55;13.01;18.99
66102;HTU21D;52883;51.094;5.880;2024-03-08T14:56:22;12.85;19.52
66102;HTU21D;52883;51.094;5.880;2024-03-08T14:58:51;12.74;19.92
66102;HTU21D;52883;51.094;5.880;2024-03-08T15:01:18;12.58;20.29
66102;HTU21D;52883;51.094;5.880;2024-03-08T15:03:50;12.42;20.51
66102;HTU21D;52883;51.094;5.880;2024-03-08T15:06:18;12.38;20.05
66102;HTU21D;52883;51.094;5.880;2024-03-08T15:08:47;12.25;20.68
66102;HTU21D;52883;51.094;5.880;2024-03-08T15:11:16;12.21;20.50
66102;HTU21D;52883;51.094;5.880;2024-03-08T15:13:48;12.12;20.47
66102;HTU21D;52883;51.094;5.880;2024-03-08T15:16:20;12.12;20.12
66102;HTU21D;52883;51.094;5.880;2024-03-08T15:18:49;12.05;20.89
66102;HTU21D;52883;51.094;5.880;2024-03-08T15:21:19;12.01;20.96
66102;HTU21D;52883;51.094;5.880;2024-03-08T15:23:48;11.96;20.86
66102;HTU21D;52883;51.094;5.880;2024-03-08T15:26:21;11.93;20.61
66102;HTU21D;52883;51.094;5.880;2024-03-08T15:28:51;11.84;22.03
66102;HTU21D;52883;51.094;5.880;2024-03-08T15:31:25;11.84;21.94
66102;HTU21D;52883;51.094;5.880;2024-03-08T15:33:55;11.82;21.59
66102;HTU21D;52883;51.094;5.880;2024-03-08T15:36:39;11.75;22.02
66102;HTU21D;52883;51.094;5.880;2024-03-08T15:39:08;11.74;22.25
66102;HTU21D;52883;51.094;5.880;2024-03-08T15:41:38;11.74;22.11
66102;HTU21D;52883;51.094;5.880;2024-03-08T15:44:06;11.69;21.75
66102;HTU21D;52883;51.094;5.880;2024-03-08T15:46:32;11.69;21.81
66102;HTU21D;52883;51.094;5.880;2024-03-08T15:48:58;11.63;21.75
66102;HTU21D;52883;51.094;5.880;2024-03-08T15:51:24;11.68;21.59